createdAt,value
2018-12-26T00:00:18.220Z,0
2018-12-26T00:00:58.993Z,0
2018-12-26T00:01:39.785Z,0
2018-12-26T00:02:20.467Z,0
2018-12-26T00:03:01.238Z,0
2018-12-26T00:03:42.018Z,0
2018-12-26T00:04:22.842Z,0
2018-12-26T00:05:03.648Z,0
2018-12-26T00:05:44.494Z,0
2018-12-26T00:06:25.190Z,0
2018-12-26T00:07:05.979Z,0
2018-12-26T00:07:46.670Z,0
2018-12-26T00:08:27.407Z,0
2018-12-26T00:09:08.137Z,0
2018-12-26T00:09:48.913Z,0
2018-12-26T00:10:29.670Z,0
2018-12-26T00:11:10.417Z,0
2018-12-26T00:11:51.243Z,0
2018-12-26T00:12:32.078Z,0
2018-12-26T00:13:12.901Z,0
2018-12-26T00:13:53.652Z,0
2018-12-26T00:14:34.408Z,0
2018-12-26T00:15:15.158Z,0
2018-12-26T00:15:55.918Z,0
2018-12-26T00:16:36.759Z,0
2018-12-26T00:17:17.591Z,0
2018-12-26T00:17:58.329Z,0
2018-12-26T00:18:39.162Z,0
2018-12-26T00:19:19.829Z,0
2018-12-26T00:20:00.661Z,0
2018-12-26T00:20:41.390Z,0
2018-12-26T00:21:22.161Z,0
2018-12-26T00:22:02.961Z,0
2018-12-26T00:22:43.773Z,0
2018-12-26T00:23:24.559Z,0
2018-12-26T00:24:05.378Z,0
2018-12-26T00:24:46.041Z,0
2018-12-26T00:25:26.820Z,0
2018-12-26T00:26:07.667Z,0
2018-12-26T00:26:48.435Z,0
2018-12-26T00:27:29.162Z,0
2018-12-26T00:28:09.909Z,0
2018-12-26T00:28:50.732Z,0
2018-12-26T00:29:31.467Z,0
2018-12-26T00:30:12.170Z,0
2018-12-26T00:30:52.947Z,0
2018-12-26T00:31:33.766Z,0
2018-12-26T00:32:14.613Z,0
2018-12-26T00:32:55.450Z,0
2018-12-26T00:33:36.290Z,0
2018-12-26T00:34:17.040Z,0
2018-12-26T00:34:57.777Z,0
2018-12-26T00:35:38.511Z,0
2018-12-26T00:36:19.296Z,0
2018-12-26T00:37:00.061Z,0
2018-12-26T00:37:40.873Z,0
2018-12-26T00:38:21.655Z,0
2018-12-26T00:39:02.383Z,0
2018-12-26T00:39:43.198Z,0
2018-12-26T00:40:23.933Z,0
2018-12-26T00:41:04.669Z,0
2018-12-26T00:41:45.506Z,0
2018-12-26T00:42:26.293Z,0
2018-12-26T00:43:06.997Z,0
2018-12-26T00:43:47.708Z,0
2018-12-26T00:44:28.505Z,0
2018-12-26T00:45:09.447Z,0
2018-12-26T00:45:50.267Z,0
2018-12-26T00:46:30.997Z,0
2018-12-26T00:47:12.035Z,0
2018-12-26T00:47:52.920Z,0
2018-12-26T00:48:34.011Z,0
2018-12-26T00:49:14.871Z,0
2018-12-26T00:49:55.636Z,0
2018-12-26T00:50:36.765Z,0
2018-12-26T00:51:17.636Z,0
2018-12-26T00:51:58.480Z,0
2018-12-26T00:52:39.333Z,0
2018-12-26T00:53:20.148Z,0
2018-12-26T00:54:00.969Z,0
2018-12-26T00:54:41.764Z,0
2018-12-26T00:55:22.512Z,0
2018-12-26T00:56:10.356Z,0
2018-12-26T00:56:43.990Z,0
2018-12-26T00:57:24.722Z,0
2018-12-26T00:58:05.602Z,0
2018-12-26T00:58:46.414Z,0
2018-12-26T00:59:27.226Z,0
2018-12-26T01:00:07.935Z,0
2018-12-26T01:00:48.649Z,0
2018-12-26T01:01:29.383Z,0
2018-12-26T01:02:10.211Z,0
2018-12-26T01:02:51.005Z,0
2018-12-26T01:03:31.994Z,0
2018-12-26T01:04:12.801Z,0
2018-12-26T01:04:53.586Z,0
2018-12-26T01:05:34.459Z,0
2018-12-26T01:06:15.196Z,0
2018-12-26T01:06:55.896Z,0
2018-12-26T01:07:36.704Z,0
2018-12-26T01:08:17.469Z,0
2018-12-26T01:08:58.325Z,0
2018-12-26T01:09:39.203Z,0
2018-12-26T01:10:20.011Z,0
2018-12-26T01:11:00.770Z,0
2018-12-26T01:11:41.513Z,0
2018-12-26T01:12:22.363Z,0
2018-12-26T01:13:03.087Z,0
2018-12-26T01:13:43.808Z,0
2018-12-26T01:14:24.537Z,0
2018-12-26T01:15:05.338Z,0
2018-12-26T01:15:46.142Z,0
2018-12-26T01:16:26.867Z,0
2018-12-26T01:17:07.635Z,0
2018-12-26T01:17:48.494Z,0
2018-12-26T01:18:29.322Z,0
2018-12-26T01:19:10.068Z,0
2018-12-26T01:19:50.805Z,0
2018-12-26T01:20:31.626Z,0
2018-12-26T01:21:12.439Z,0
2018-12-26T01:21:53.147Z,0
2018-12-26T01:22:33.855Z,0
2018-12-26T01:23:14.596Z,0
2018-12-26T01:23:55.427Z,0
2018-12-26T01:24:36.163Z,0
2018-12-26T01:25:16.967Z,0
2018-12-26T01:25:57.721Z,0
2018-12-26T01:26:38.384Z,0
2018-12-26T01:27:19.093Z,0
2018-12-26T01:27:59.911Z,0
2018-12-26T01:28:40.734Z,0
2018-12-26T01:29:21.475Z,0
2018-12-26T01:30:02.191Z,0
2018-12-26T01:30:43.021Z,0
2018-12-26T01:31:23.800Z,0
2018-12-26T01:32:04.593Z,0
2018-12-26T01:32:45.323Z,0
2018-12-26T01:33:26.073Z,0
2018-12-26T01:34:06.799Z,0
2018-12-26T01:34:47.557Z,0
2018-12-26T01:35:28.388Z,0
2018-12-26T01:36:09.141Z,0
2018-12-26T01:36:49.882Z,0
2018-12-26T01:37:30.601Z,0
2018-12-26T01:38:11.441Z,0
2018-12-26T01:38:52.179Z,0
2018-12-26T01:39:32.912Z,0
2018-12-26T01:40:13.662Z,0
2018-12-26T01:40:54.496Z,0
2018-12-26T01:41:35.285Z,0
2018-12-26T01:42:16.138Z,0
2018-12-26T01:42:56.959Z,0
2018-12-26T01:43:37.700Z,0
2018-12-26T01:44:18.433Z,0
2018-12-26T01:44:59.191Z,0
2018-12-26T01:45:40.005Z,0
2018-12-26T01:46:20.748Z,0
2018-12-26T01:47:03.206Z,0
2018-12-26T01:47:44.015Z,0
2018-12-26T01:48:24.744Z,0
2018-12-26T01:49:05.585Z,0
2018-12-26T01:49:46.324Z,0
2018-12-26T01:50:27.077Z,0
2018-12-26T01:51:07.891Z,0
2018-12-26T01:51:48.626Z,0
2018-12-26T01:52:29.378Z,0
2018-12-26T01:53:10.137Z,0
2018-12-26T01:53:50.865Z,0
2018-12-26T01:54:31.754Z,0
2018-12-26T01:55:12.534Z,0
2018-12-26T01:55:53.288Z,0
2018-12-26T01:56:34.065Z,0
2018-12-26T01:57:14.853Z,0
2018-12-26T01:57:55.649Z,0
2018-12-26T01:58:36.381Z,0
2018-12-26T01:59:17.143Z,0
2018-12-26T01:59:57.878Z,0
2018-12-26T02:00:38.773Z,0
2018-12-26T02:01:19.502Z,0
2018-12-26T02:02:00.314Z,0
2018-12-26T02:02:41.140Z,0
2018-12-26T02:03:21.839Z,0
2018-12-26T02:04:02.672Z,0
2018-12-26T02:04:43.470Z,0
2018-12-26T02:05:24.228Z,0
2018-12-26T02:06:04.965Z,0
2018-12-26T02:06:45.685Z,0
2018-12-26T02:07:26.466Z,0
2018-12-26T02:08:07.320Z,0
2018-12-26T02:08:48.127Z,0
2018-12-26T02:09:28.875Z,0
2018-12-26T02:10:09.584Z,0
2018-12-26T02:10:50.310Z,0
2018-12-26T02:11:31.096Z,0
2018-12-26T02:12:11.911Z,0
2018-12-26T02:12:52.677Z,0
2018-12-26T02:13:33.482Z,0
2018-12-26T02:14:14.252Z,0
2018-12-26T02:14:55.065Z,0
2018-12-26T02:15:35.888Z,0
2018-12-26T02:16:16.595Z,0
2018-12-26T02:16:57.321Z,0
2018-12-26T02:17:38.110Z,0
2018-12-26T02:18:19.039Z,0
2018-12-26T02:18:59.926Z,0
2018-12-26T02:19:40.701Z,0
2018-12-26T02:20:21.458Z,0
2018-12-26T02:21:02.150Z,0
2018-12-26T02:21:42.986Z,0
2018-12-26T02:22:23.760Z,0
2018-12-26T02:23:04.519Z,0
2018-12-26T02:23:45.220Z,0
2018-12-26T02:24:25.985Z,0
2018-12-26T02:25:06.855Z,0
2018-12-26T02:25:47.507Z,0
2018-12-26T02:26:36.221Z,0
2018-12-26T02:27:09.056Z,0
2018-12-26T02:27:49.877Z,0
2018-12-26T02:28:30.633Z,0
2018-12-26T02:29:11.383Z,0
2018-12-26T02:29:52.166Z,0
2018-12-26T02:30:32.998Z,0
2018-12-26T02:31:13.743Z,0
2018-12-26T02:31:54.474Z,0
2018-12-26T02:32:35.172Z,0
2018-12-26T02:33:15.971Z,0
2018-12-26T02:33:56.737Z,0
2018-12-26T02:34:37.552Z,0
2018-12-26T02:35:25.011Z,0
2018-12-26T02:36:05.725Z,0
2018-12-26T02:36:46.517Z,0
2018-12-26T02:37:27.265Z,0
2018-12-26T02:38:08.039Z,0
2018-12-26T02:38:48.877Z,0
2018-12-26T02:39:29.607Z,0
2018-12-26T02:40:10.442Z,0
2018-12-26T02:40:51.230Z,0
2018-12-26T02:41:32.020Z,0
2018-12-26T02:42:12.738Z,0
2018-12-26T02:42:53.477Z,0
2018-12-26T02:43:34.326Z,0
2018-12-26T02:44:15.082Z,0
2018-12-26T02:44:55.838Z,0
2018-12-26T02:45:36.572Z,0
2018-12-26T02:46:17.323Z,0
2018-12-26T02:46:58.290Z,0
2018-12-26T02:47:38.940Z,0
2018-12-26T02:48:19.657Z,0
2018-12-26T02:49:00.496Z,0
2018-12-26T02:49:41.311Z,0
2018-12-26T02:50:22.091Z,0
2018-12-26T02:51:02.798Z,0
2018-12-26T02:51:43.529Z,0
2018-12-26T02:52:24.261Z,0
2018-12-26T02:53:05.056Z,0
2018-12-26T02:53:45.785Z,0
2018-12-26T02:54:26.672Z,0
2018-12-26T02:55:07.402Z,0
2018-12-26T02:55:48.144Z,0
2018-12-26T02:56:28.962Z,0
2018-12-26T02:57:09.701Z,0
2018-12-26T02:57:50.399Z,0
2018-12-26T02:58:31.099Z,0
2018-12-26T02:59:11.973Z,0
2018-12-26T02:59:53.047Z,0
2018-12-26T03:00:34.010Z,0
2018-12-26T03:01:14.777Z,0
2018-12-26T03:01:55.647Z,0
2018-12-26T03:02:36.427Z,0
2018-12-26T03:03:17.265Z,0
2018-12-26T03:03:58.018Z,0
2018-12-26T03:04:38.785Z,0
2018-12-26T03:05:19.553Z,0
2018-12-26T03:06:00.310Z,0
2018-12-26T03:06:40.991Z,0
2018-12-26T03:07:21.737Z,0
2018-12-26T03:08:02.487Z,0
2018-12-26T03:08:43.303Z,0
2018-12-26T03:09:24.154Z,0
2018-12-26T03:10:04.884Z,0
2018-12-26T03:10:45.648Z,0
2018-12-26T03:11:26.408Z,0
2018-12-26T03:12:07.162Z,0
2018-12-26T03:12:48.015Z,0
2018-12-26T03:13:28.802Z,0
2018-12-26T03:14:09.559Z,0
2018-12-26T03:14:50.357Z,0
2018-12-26T03:15:31.117Z,0
2018-12-26T03:16:11.922Z,0
2018-12-26T03:16:52.647Z,0
2018-12-26T03:17:33.398Z,0
2018-12-26T03:18:14.185Z,0
2018-12-26T03:18:54.954Z,0
2018-12-26T03:19:35.847Z,0
2018-12-26T03:20:16.650Z,0
2018-12-26T03:20:57.449Z,0
2018-12-26T03:21:38.203Z,0
2018-12-26T03:25:49.951Z,0
2018-12-26T03:26:30.770Z,0
2018-12-26T03:27:11.563Z,0
2018-12-26T03:27:52.553Z,0
2018-12-26T03:28:33.261Z,0
2018-12-26T03:29:14.036Z,0
2018-12-26T03:29:54.845Z,0
2018-12-26T03:30:35.631Z,0
2018-12-26T03:31:16.425Z,0
2018-12-26T03:31:57.178Z,0
2018-12-26T03:32:37.990Z,0
2018-12-26T03:33:18.800Z,0
2018-12-26T03:33:59.553Z,0
2018-12-26T03:34:40.279Z,0
2018-12-26T03:35:21.001Z,0
2018-12-26T03:36:01.746Z,0
2018-12-26T03:36:42.510Z,0
2018-12-26T03:37:23.364Z,0
2018-12-26T03:38:04.161Z,0
2018-12-26T03:38:45.907Z,0
2018-12-26T03:39:26.689Z,0
2018-12-26T03:40:07.490Z,0
2018-12-26T03:40:48.211Z,0
2018-12-26T03:41:28.928Z,0
2018-12-26T03:42:09.666Z,0
2018-12-26T03:42:50.399Z,0
2018-12-26T03:43:31.207Z,0
2018-12-26T03:44:12.048Z,0
2018-12-26T03:44:52.851Z,0
2018-12-26T03:45:33.551Z,0
2018-12-26T03:46:14.292Z,0
2018-12-26T03:46:55.082Z,0
2018-12-26T03:47:35.862Z,0
2018-12-26T03:48:16.654Z,0
2018-12-26T03:48:57.515Z,0
2018-12-26T03:49:38.292Z,0
2018-12-26T03:50:19.068Z,0
2018-12-26T03:50:59.885Z,0
2018-12-26T03:51:40.628Z,0
2018-12-26T03:52:21.378Z,0
2018-12-26T03:53:02.076Z,0
2018-12-26T03:53:42.943Z,0
2018-12-26T03:54:23.834Z,0
2018-12-26T03:55:04.672Z,0
2018-12-26T03:55:45.549Z,0
2018-12-26T03:56:26.340Z,0
2018-12-26T03:57:07.585Z,0
2018-12-26T03:57:48.207Z,0
2018-12-26T03:58:29.010Z,0
2018-12-26T03:59:10.434Z,0
2018-12-26T03:59:50.507Z,0
2018-12-26T04:00:31.323Z,0
2018-12-26T04:01:12.105Z,0
2018-12-26T04:01:52.809Z,0
2018-12-26T04:02:33.585Z,0
2018-12-26T04:03:14.326Z,0
2018-12-26T04:03:55.145Z,0
2018-12-26T04:04:35.913Z,0
2018-12-26T04:05:16.636Z,0
2018-12-26T04:05:57.433Z,0
2018-12-26T04:06:38.228Z,0
2018-12-26T04:07:18.966Z,0
2018-12-26T04:07:59.677Z,0
2018-12-26T04:08:40.379Z,0
2018-12-26T04:09:21.211Z,0
2018-12-26T04:10:02.021Z,0
2018-12-26T04:10:42.775Z,0
2018-12-26T04:11:23.558Z,0
2018-12-26T04:12:04.279Z,0
2018-12-26T04:12:44.984Z,0
2018-12-26T04:13:25.775Z,0
2018-12-26T04:14:06.599Z,0
2018-12-26T04:14:47.346Z,0
2018-12-26T04:15:28.074Z,0
2018-12-26T04:16:08.882Z,0
2018-12-26T04:16:49.728Z,0
2018-12-26T04:17:30.550Z,0
2018-12-26T04:18:11.238Z,0
2018-12-26T04:18:51.956Z,0
2018-12-26T04:19:32.664Z,0
2018-12-26T04:20:13.449Z,0
2018-12-26T04:20:54.265Z,0
2018-12-26T04:21:35.018Z,0
2018-12-26T04:22:15.806Z,0
2018-12-26T04:22:56.523Z,0
2018-12-26T04:23:37.346Z,0
2018-12-26T04:24:18.157Z,0
2018-12-26T04:24:58.873Z,0
2018-12-26T04:25:39.621Z,0
2018-12-26T04:26:21.271Z,0
2018-12-26T04:27:01.283Z,0
2018-12-26T04:27:42.081Z,0
2018-12-26T04:28:22.896Z,0
2018-12-26T04:29:03.590Z,0
2018-12-26T04:29:44.291Z,0
2018-12-26T04:30:25.030Z,0
2018-12-26T04:31:05.802Z,0
2018-12-26T04:31:46.668Z,0
2018-12-26T04:32:27.377Z,0
2018-12-26T04:33:08.167Z,0
2018-12-26T04:33:49.011Z,0
2018-12-26T04:34:29.762Z,0
2018-12-26T04:35:10.661Z,0
2018-12-26T04:35:51.302Z,0
2018-12-26T04:36:32.058Z,0
2018-12-26T04:37:12.853Z,0
2018-12-26T04:37:53.606Z,0
2018-12-26T04:38:34.390Z,0
2018-12-26T04:39:15.186Z,0
2018-12-26T04:39:55.960Z,0
2018-12-26T04:40:36.744Z,0
2018-12-26T04:41:17.487Z,0
2018-12-26T04:41:58.283Z,0
2018-12-26T04:42:39.101Z,0
2018-12-26T04:43:20.874Z,0
2018-12-26T04:44:01.652Z,0
2018-12-26T04:44:42.960Z,0
2018-12-26T04:45:23.684Z,0
2018-12-26T04:46:04.475Z,0
2018-12-26T04:46:45.289Z,0
2018-12-26T04:47:26.087Z,0
2018-12-26T04:48:06.862Z,0
2018-12-26T04:48:47.600Z,0
2018-12-26T04:49:28.391Z,0
2018-12-26T04:50:09.223Z,0
2018-12-26T04:50:49.933Z,0
2018-12-26T04:51:30.637Z,0
2018-12-26T04:52:11.360Z,0
2018-12-26T04:52:52.176Z,0
2018-12-26T04:53:33.076Z,0
2018-12-26T04:54:13.841Z,0
2018-12-26T04:54:56.378Z,0
2018-12-26T04:55:36.005Z,0
2018-12-26T04:56:16.707Z,0
2018-12-26T04:56:57.517Z,0
2018-12-26T04:57:38.463Z,0
2018-12-26T04:58:19.223Z,0
2018-12-26T04:58:59.929Z,0
2018-12-26T04:59:40.694Z,0
2018-12-26T05:00:21.504Z,0
2018-12-26T05:01:02.357Z,0
2018-12-26T05:01:43.102Z,0
2018-12-26T05:02:23.890Z,0
2018-12-26T05:03:04.616Z,0
2018-12-26T05:03:45.391Z,0
2018-12-26T05:04:27.166Z,0
2018-12-26T05:05:07.877Z,0
2018-12-26T05:05:48.648Z,0
2018-12-26T05:06:29.372Z,0
2018-12-26T05:07:11.360Z,0
2018-12-26T05:07:51.381Z,0
2018-12-26T05:08:32.304Z,0
2018-12-26T05:09:13.065Z,0
2018-12-26T05:09:53.779Z,0
2018-12-26T05:10:34.943Z,0
2018-12-26T05:11:15.736Z,0
2018-12-26T05:11:56.433Z,0
2018-12-26T05:12:37.177Z,0
2018-12-26T05:13:19.056Z,0
2018-12-26T05:14:00.302Z,0
2018-12-26T05:14:41.058Z,0
2018-12-26T05:15:21.816Z,0
2018-12-26T05:16:02.603Z,0
2018-12-26T05:16:43.381Z,0
2018-12-26T05:17:24.149Z,0
2018-12-26T05:18:04.886Z,0
2018-12-26T05:18:45.656Z,0
2018-12-26T05:19:26.491Z,0
2018-12-26T05:20:07.334Z,0
2018-12-26T05:20:48.171Z,0
2018-12-26T05:21:28.869Z,0
2018-12-26T05:22:09.577Z,0
2018-12-26T05:22:50.326Z,0
2018-12-26T05:23:31.125Z,0
2018-12-26T05:24:11.886Z,0
2018-12-26T05:24:52.614Z,0
2018-12-26T05:25:33.421Z,0
2018-12-26T05:26:14.267Z,0
2018-12-26T05:26:55.064Z,0
2018-12-26T05:27:35.877Z,0
2018-12-26T05:28:16.636Z,0
2018-12-26T05:28:57.481Z,0
2018-12-26T05:29:38.249Z,0
2018-12-26T05:30:18.974Z,0
2018-12-26T05:30:59.699Z,0
2018-12-26T05:31:40.412Z,0
2018-12-26T05:32:21.232Z,0
2018-12-26T05:33:02.009Z,0
2018-12-26T05:33:42.702Z,0
2018-12-26T05:34:23.541Z,0
2018-12-26T05:35:04.341Z,0
2018-12-26T05:35:45.175Z,0
2018-12-26T05:36:25.909Z,0
2018-12-26T05:37:06.700Z,0
2018-12-26T05:37:47.448Z,0
2018-12-26T05:38:28.282Z,0
2018-12-26T05:39:09.144Z,0
2018-12-26T05:39:49.974Z,0
2018-12-26T05:40:30.738Z,0
2018-12-26T05:41:11.510Z,0
2018-12-26T05:41:52.367Z,0
2018-12-26T05:42:33.190Z,0
2018-12-26T05:43:13.933Z,0
2018-12-26T05:43:54.661Z,0
2018-12-26T05:44:35.442Z,0
2018-12-26T05:45:16.241Z,0
2018-12-26T05:45:56.983Z,0
2018-12-26T05:46:37.690Z,0
2018-12-26T05:47:18.506Z,0
2018-12-26T05:47:59.316Z,0
2018-12-26T05:48:40.121Z,0
2018-12-26T05:49:20.847Z,0
2018-12-26T05:50:01.577Z,0
2018-12-26T05:50:42.413Z,0
2018-12-26T05:51:23.201Z,0
2018-12-26T05:52:03.930Z,0
2018-12-26T05:52:44.672Z,0
2018-12-26T05:53:25.419Z,0
2018-12-26T05:54:06.294Z,0
2018-12-26T05:54:47.041Z,0
2018-12-26T05:55:27.891Z,0
2018-12-26T05:56:08.713Z,0
2018-12-26T05:56:49.399Z,0
2018-12-26T05:57:30.138Z,0
2018-12-26T05:58:10.898Z,0
2018-12-26T05:58:51.754Z,0
2018-12-26T05:59:32.557Z,0
2018-12-26T06:00:13.315Z,0
2018-12-26T06:00:54.129Z,0
2018-12-26T06:01:34.938Z,0
2018-12-26T06:02:15.697Z,0
2018-12-26T06:02:56.436Z,0
2018-12-26T06:03:37.157Z,0
2018-12-26T06:04:17.920Z,0
2018-12-26T06:04:58.821Z,0
2018-12-26T06:05:39.672Z,0
2018-12-26T06:06:20.464Z,0
2018-12-26T06:07:01.218Z,0
2018-12-26T06:07:41.952Z,0
2018-12-26T06:08:22.770Z,0
2018-12-26T06:09:03.492Z,0
2018-12-26T06:09:44.195Z,0
2018-12-26T06:10:24.907Z,0
2018-12-26T06:11:05.665Z,0
2018-12-26T06:11:46.515Z,0
2018-12-26T06:12:27.321Z,0
2018-12-26T06:13:08.092Z,0
2018-12-26T06:13:48.821Z,0
2018-12-26T06:14:29.519Z,0
2018-12-26T06:15:10.257Z,0
2018-12-26T06:15:51.084Z,0
2018-12-26T06:16:31.794Z,0
2018-12-26T06:17:12.518Z,0
2018-12-26T06:17:53.346Z,0
2018-12-26T06:18:34.097Z,0
2018-12-26T06:19:14.890Z,0
2018-12-26T06:19:55.579Z,0
2018-12-26T06:20:36.299Z,0
2018-12-26T06:21:17.130Z,0
2018-12-26T06:21:57.848Z,0
2018-12-26T06:22:38.544Z,0
2018-12-26T06:23:19.259Z,0
2018-12-26T06:24:00.146Z,0
2018-12-26T06:24:40.990Z,0
2018-12-26T06:25:21.735Z,0
2018-12-26T06:26:02.522Z,0
2018-12-26T06:26:43.321Z,0
2018-12-26T06:27:24.064Z,0
2018-12-26T06:28:04.857Z,0
2018-12-26T06:28:45.566Z,0
2018-12-26T06:29:26.297Z,0
2018-12-26T06:30:07.077Z,0
2018-12-26T06:30:47.823Z,0
2018-12-26T06:31:28.670Z,0
2018-12-26T06:32:09.491Z,0
2018-12-26T06:32:50.218Z,0
2018-12-26T06:33:30.943Z,0
2018-12-26T06:34:11.755Z,0
2018-12-26T06:34:52.520Z,0
2018-12-26T06:35:33.211Z,0
2018-12-26T06:36:13.930Z,0
2018-12-26T06:36:54.662Z,0
2018-12-26T06:37:35.453Z,0
2018-12-26T06:38:16.306Z,0
2018-12-26T06:38:57.083Z,0
2018-12-26T06:39:37.754Z,0
2018-12-26T06:40:18.496Z,0
2018-12-26T06:40:59.232Z,0
2018-12-26T06:41:40.103Z,0
2018-12-26T06:42:20.922Z,0
2018-12-26T06:43:01.630Z,0
2018-12-26T06:43:42.426Z,0
2018-12-26T06:44:23.178Z,0
2018-12-26T06:45:03.969Z,0
2018-12-26T06:45:44.734Z,0
2018-12-26T06:46:25.455Z,0
2018-12-26T06:47:06.157Z,0
2018-12-26T06:47:46.963Z,0
2018-12-26T06:48:27.774Z,0
2018-12-26T06:49:08.593Z,0
2018-12-26T06:49:49.388Z,0
2018-12-26T06:50:30.134Z,0
2018-12-26T06:51:10.882Z,0
2018-12-26T06:51:51.672Z,0
2018-12-26T06:52:32.409Z,0
2018-12-26T06:53:13.111Z,0
2018-12-26T06:53:53.855Z,0
2018-12-26T06:54:34.630Z,0
2018-12-26T06:55:15.448Z,0
2018-12-26T06:55:56.166Z,0
2018-12-26T06:56:36.957Z,0
2018-12-26T06:57:17.700Z,0
2018-12-26T06:58:00.135Z,0
2018-12-26T06:58:39.322Z,0
2018-12-26T06:59:20.059Z,0
2018-12-26T07:00:00.850Z,0
2018-12-26T07:00:41.632Z,0
2018-12-26T07:01:22.371Z,0
2018-12-26T07:02:03.104Z,0
2018-12-26T07:02:43.827Z,0
2018-12-26T07:03:26.058Z,0
2018-12-26T07:04:05.473Z,0
2018-12-26T07:04:46.276Z,0
2018-12-26T07:05:27.005Z,0
2018-12-26T07:06:07.746Z,0
2018-12-26T07:06:48.486Z,0
2018-12-26T07:07:29.298Z,0
2018-12-26T07:08:10.036Z,0
2018-12-26T07:08:50.726Z,4
2018-12-26T07:09:31.506Z,4
2018-12-26T07:10:12.305Z,4
2018-12-26T07:10:53.113Z,4
2018-12-26T07:11:33.919Z,4
2018-12-26T07:12:14.626Z,0
2018-12-26T07:12:55.345Z,0
2018-12-26T07:13:36.080Z,0
2018-12-26T07:14:16.895Z,4
2018-12-26T07:14:57.876Z,0
2018-12-26T07:15:38.660Z,4
2018-12-26T07:16:19.462Z,0
2018-12-26T07:17:00.080Z,4
2018-12-26T07:17:40.893Z,4
2018-12-26T07:18:21.637Z,4
2018-12-26T07:19:02.384Z,4
2018-12-26T07:19:43.127Z,4
2018-12-26T07:20:23.880Z,4
2018-12-26T07:21:04.628Z,4
2018-12-26T07:21:45.446Z,4
2018-12-26T07:22:26.334Z,8
2018-12-26T07:23:06.958Z,4
2018-12-26T07:23:47.703Z,8
2018-12-26T07:24:28.502Z,8
2018-12-26T07:25:09.289Z,8
2018-12-26T07:25:50.056Z,8
2018-12-26T07:26:30.823Z,8
2018-12-26T07:27:11.624Z,8
2018-12-26T07:27:52.443Z,8
2018-12-26T07:28:33.233Z,8
2018-12-26T07:29:13.981Z,8
2018-12-26T07:29:54.676Z,8
2018-12-26T07:30:35.499Z,8
2018-12-26T07:31:16.240Z,12
2018-12-26T07:31:57.000Z,8
2018-12-26T07:32:37.757Z,12
2018-12-26T07:33:18.466Z,12
2018-12-26T07:33:59.292Z,16
2018-12-26T07:34:42.222Z,16
2018-12-26T07:35:20.871Z,20
2018-12-26T07:36:01.803Z,20
2018-12-26T07:36:42.599Z,20
2018-12-26T07:37:23.397Z,20
2018-12-26T07:38:04.187Z,20
2018-12-26T07:38:44.959Z,20
2018-12-26T07:39:25.745Z,20
2018-12-26T07:40:06.495Z,20
2018-12-26T07:40:47.351Z,16
2018-12-26T07:41:28.156Z,20
2018-12-26T07:42:08.953Z,16
2018-12-26T07:42:49.707Z,20
2018-12-26T07:43:30.527Z,16
2018-12-26T07:44:11.299Z,20
2018-12-26T07:44:51.996Z,20
2018-12-26T07:45:32.737Z,20
2018-12-26T07:46:13.446Z,24
2018-12-26T07:46:54.268Z,20
2018-12-26T07:47:35.059Z,24
2018-12-26T07:48:15.784Z,24
2018-12-26T07:48:56.588Z,24
2018-12-26T07:49:37.362Z,24
2018-12-26T07:50:18.196Z,20
2018-12-26T07:50:59.078Z,24
2018-12-26T07:51:39.772Z,24
2018-12-26T07:52:20.596Z,24
2018-12-26T07:53:01.322Z,24
2018-12-26T07:53:42.073Z,28
2018-12-26T07:54:22.813Z,28
2018-12-26T07:55:03.537Z,28
2018-12-26T07:55:44.369Z,32
2018-12-26T07:56:25.125Z,28
2018-12-26T07:57:05.937Z,32
2018-12-26T07:57:46.704Z,32
2018-12-26T07:58:27.427Z,36
2018-12-26T07:59:08.157Z,32
2018-12-26T07:59:48.935Z,36
2018-12-26T08:00:29.738Z,36
2018-12-26T08:01:10.507Z,36
2018-12-26T08:01:51.273Z,36
2018-12-26T08:02:32.125Z,40
2018-12-26T08:03:12.959Z,40
2018-12-26T08:03:53.828Z,44
2018-12-26T08:04:34.562Z,48
2018-12-26T08:05:15.367Z,48
2018-12-26T08:05:56.180Z,56
2018-12-26T08:06:36.948Z,52
2018-12-26T08:07:17.660Z,56
2018-12-26T08:07:58.377Z,60
2018-12-26T08:08:39.183Z,56
2018-12-26T08:09:19.916Z,56
2018-12-26T08:10:00.654Z,56
2018-12-26T08:10:41.465Z,60
2018-12-26T08:11:22.303Z,56
2018-12-26T08:12:03.142Z,60
2018-12-26T08:12:43.922Z,60
2018-12-26T08:13:24.660Z,64
2018-12-26T08:14:05.440Z,64
2018-12-26T08:14:46.166Z,68
2018-12-26T08:15:26.967Z,72
2018-12-26T08:16:07.863Z,72
2018-12-26T08:16:48.680Z,76
2018-12-26T08:17:29.407Z,80
2018-12-26T08:18:10.162Z,80
2018-12-26T08:18:51.026Z,80
2018-12-26T08:19:31.729Z,80
2018-12-26T08:20:12.475Z,84
2018-12-26T08:20:53.224Z,84
2018-12-26T08:21:34.084Z,84
2018-12-26T08:22:14.899Z,88
2018-12-26T08:22:55.734Z,88
2018-12-26T08:23:36.451Z,88
2018-12-26T08:24:17.177Z,92
2018-12-26T08:24:57.907Z,92
2018-12-26T08:25:38.621Z,88
2018-12-26T08:26:19.486Z,92
2018-12-26T08:27:00.242Z,100
2018-12-26T08:27:40.947Z,104
2018-12-26T08:28:26.433Z,104
2018-12-26T08:29:02.502Z,112
2018-12-26T08:29:43.349Z,112
2018-12-26T08:30:24.058Z,116
2018-12-26T08:31:04.730Z,120
2018-12-26T08:31:45.513Z,116
2018-12-26T08:32:26.338Z,116
2018-12-26T08:33:07.117Z,108
2018-12-26T08:33:47.960Z,108
2018-12-26T08:34:28.699Z,104
2018-12-26T08:35:09.427Z,104
2018-12-26T08:35:50.337Z,112
2018-12-26T08:36:31.079Z,124
2018-12-26T08:37:11.785Z,120
2018-12-26T08:37:52.581Z,132
2018-12-26T08:38:33.339Z,144
2018-12-26T08:39:14.152Z,156
2018-12-26T08:39:55.088Z,164
2018-12-26T08:40:35.857Z,164
2018-12-26T08:41:18.541Z,160
2018-12-26T08:41:57.462Z,164
2018-12-26T08:42:38.323Z,160
2018-12-26T08:43:19.085Z,156
2018-12-26T08:43:59.798Z,144
2018-12-26T08:44:40.620Z,144
2018-12-26T08:45:21.453Z,136
2018-12-26T08:46:02.236Z,136
2018-12-26T08:46:42.955Z,128
2018-12-26T08:47:23.705Z,124
2018-12-26T08:48:04.505Z,124
2018-12-26T08:48:45.335Z,128
2018-12-26T08:49:26.130Z,128
2018-12-26T08:50:06.864Z,128
2018-12-26T08:50:47.626Z,132
2018-12-26T08:51:28.351Z,140
2018-12-26T08:52:09.202Z,148
2018-12-26T08:52:50.278Z,152
2018-12-26T08:53:30.630Z,152
2018-12-26T08:54:11.424Z,160
2018-12-26T08:54:52.205Z,164
2018-12-26T08:55:33.006Z,164
2018-12-26T08:56:13.818Z,168
2018-12-26T08:56:54.548Z,168
2018-12-26T08:57:35.265Z,176
2018-12-26T08:58:16.017Z,176
2018-12-26T08:58:56.905Z,176
2018-12-26T08:59:37.649Z,176
2018-12-26T09:00:18.458Z,176
2018-12-26T09:00:59.211Z,176
2018-12-26T09:01:39.982Z,176
2018-12-26T09:02:20.820Z,176
2018-12-26T09:03:01.560Z,172
2018-12-26T09:03:42.326Z,144
2018-12-26T09:04:23.032Z,144
2018-12-26T09:05:03.784Z,152
2018-12-26T09:05:44.619Z,156
2018-12-26T09:06:25.398Z,156
2018-12-26T09:07:06.145Z,168
2018-12-26T09:07:46.892Z,180
2018-12-26T09:08:27.633Z,172
2018-12-26T09:09:08.355Z,156
2018-12-26T09:09:49.150Z,156
2018-12-26T09:10:29.844Z,180
2018-12-26T09:11:10.664Z,184
2018-12-26T09:11:51.522Z,196
2018-12-26T09:12:32.411Z,188
2018-12-26T09:13:13.247Z,188
2018-12-26T09:13:53.964Z,172
2018-12-26T09:14:34.766Z,160
2018-12-26T09:15:15.590Z,156
2018-12-26T09:15:56.299Z,156
2018-12-26T09:16:37.018Z,180
2018-12-26T09:17:17.791Z,188
2018-12-26T09:17:58.553Z,192
2018-12-26T09:18:39.373Z,192
2018-12-26T09:19:20.076Z,208
2018-12-26T09:20:00.852Z,212
2018-12-26T09:20:41.859Z,200
2018-12-26T09:21:22.637Z,208
2018-12-26T09:22:03.434Z,220
2018-12-26T09:22:44.167Z,236
2018-12-26T09:23:24.928Z,232
2018-12-26T09:24:05.748Z,220
2018-12-26T09:24:46.479Z,224
2018-12-26T09:25:27.281Z,224
2018-12-26T09:26:08.116Z,216
2018-12-26T09:26:48.881Z,216
2018-12-26T09:27:29.645Z,232
2018-12-26T09:28:10.443Z,236
2018-12-26T09:28:51.298Z,236
2018-12-26T09:29:32.026Z,228
2018-12-26T09:30:12.846Z,228
2018-12-26T09:30:53.554Z,232
2018-12-26T09:31:34.387Z,248
2018-12-26T09:32:15.147Z,260
2018-12-26T09:32:55.975Z,264
2018-12-26T09:33:36.753Z,244
2018-12-26T09:34:17.544Z,244
2018-12-26T09:34:58.201Z,272
2018-12-26T09:35:39.059Z,272
2018-12-26T09:36:19.914Z,272
2018-12-26T09:37:00.613Z,268
2018-12-26T09:37:41.388Z,268
2018-12-26T09:38:22.194Z,260
2018-12-26T09:39:02.969Z,248
2018-12-26T09:39:43.758Z,236
2018-12-26T09:40:24.507Z,236
2018-12-26T09:41:05.260Z,240
2018-12-26T09:41:45.974Z,260
2018-12-26T09:42:26.847Z,236
2018-12-26T09:43:07.590Z,252
2018-12-26T09:43:48.414Z,276
2018-12-26T09:44:29.135Z,284
2018-12-26T09:45:09.914Z,288
2018-12-26T09:45:50.794Z,280
2018-12-26T09:46:31.549Z,264
2018-12-26T09:47:12.297Z,268
2018-12-26T09:47:53.020Z,288
2018-12-26T09:48:33.769Z,296
2018-12-26T09:49:14.547Z,292
2018-12-26T09:49:55.271Z,300
2018-12-26T09:50:36.012Z,296
2018-12-26T09:51:16.868Z,304
2018-12-26T09:51:57.626Z,304
2018-12-26T09:52:38.412Z,304
2018-12-26T09:53:19.146Z,304
2018-12-26T09:53:59.929Z,300
2018-12-26T09:54:40.740Z,300
2018-12-26T09:55:21.464Z,296
2018-12-26T09:56:02.201Z,292
2018-12-26T09:56:42.897Z,288
2018-12-26T09:57:23.642Z,292
2018-12-26T09:58:04.471Z,288